createdAt,value
2022-11-29T00:00:35.783Z,21.45
2022-11-29T00:06:08.906Z,16.67
2022-11-29T00:12:00.628Z,16.07
2022-11-29T00:17:31.792Z,18.27
2022-11-29T00:23:03.033Z,17.60
2022-11-29T00:28:35.609Z,16.88
2022-11-29T00:34:09.991Z,16.67
2022-11-29T00:39:41.487Z,19.00
2022-11-29T00:45:12.432Z,16.88
2022-11-29T00:50:43.200Z,16.00
2022-11-29T00:56:14.721Z,18.67
2022-11-29T01:01:46.062Z,17.60
2022-11-29T01:07:17.706Z,18.58
2022-11-29T01:12:49.036Z,18.83
2022-11-29T01:18:20.182Z,18.15
2022-11-29T01:23:52.728Z,17.13
2022-11-29T01:29:25.067Z,17.02
2022-11-29T01:34:56.248Z,19.40
2022-11-29T01:40:27.208Z,16.77
2022-11-29T01:45:58.682Z,19.83
2022-11-29T01:51:31.128Z,19.92
2022-11-29T01:57:03.783Z,17.60
2022-11-29T02:02:38.903Z,17.65
2022-11-29T02:08:11.708Z,16.77
2022-11-29T02:13:48.124Z,15.15
2022-11-29T02:19:39.277Z,17.73
2022-11-29T02:25:35.344Z,18.05
2022-11-29T02:31:27.867Z,20.45
2022-11-29T02:37:11.558Z,20.48
2022-11-29T02:48:38.929Z,18.10
2022-11-29T02:54:24.759Z,17.80
2022-11-29T03:00:01.710Z,19.42
2022-11-29T03:05:45.086Z,17.98
2022-11-29T03:11:34.344Z,19.07
2022-11-29T03:17:26.694Z,17.30
2022-11-29T03:23:06.477Z,19.13
2022-11-29T03:28:49.633Z,17.98
2022-11-29T03:34:38.909Z,19.75
2022-11-29T03:40:18.680Z,19.65
2022-11-29T03:45:56.570Z,16.95
2022-11-29T03:51:52.880Z,19.80
2022-11-29T03:57:34.814Z,18.85
2022-11-29T04:03:32.795Z,19.08
2022-11-29T04:09:07.144Z,18.80
2022-11-29T04:15:02.797Z,18.15
2022-11-29T04:20:51.749Z,18.73
2022-11-29T04:26:56.599Z,18.52
2022-11-29T04:32:51.718Z,17.67
2022-11-29T04:38:48.059Z,20.02
2022-11-29T04:44:54.375Z,17.48
2022-11-29T04:50:27.593Z,20.70
2022-11-29T04:56:01.161Z,19.73
2022-11-29T05:01:47.545Z,19.08
2022-11-29T05:07:18.867Z,18.98
2022-11-29T05:13:31.400Z,17.55
2022-11-29T05:19:40.032Z,20.52
2022-11-29T05:25:20.435Z,20.10
2022-11-29T05:30:55.315Z,19.15
2022-11-29T05:36:39.515Z,19.27
2022-11-29T05:42:42.654Z,18.42
2022-11-29T05:48:13.675Z,17.00
2022-11-29T05:54:12.041Z,17.65
2022-11-29T05:59:44.240Z,21.15
2022-11-29T06:05:26.240Z,18.10
2022-11-29T06:11:11.585Z,17.40
2022-11-29T06:16:57.043Z,17.05
2022-11-29T06:23:02.862Z,19.45
2022-11-29T06:28:52.298Z,17.48
2022-11-29T06:34:31.947Z,16.30
2022-11-29T06:40:03.603Z,17.50
2022-11-29T06:45:34.783Z,17.35
2022-11-29T06:51:23.945Z,18.13
2022-11-29T06:57:24.884Z,19.08
2022-11-29T07:03:01.833Z,18.42
2022-11-29T07:08:33.141Z,16.73
2022-11-29T07:14:04.649Z,19.98
2022-11-29T07:19:46.256Z,19.58
2022-11-29T07:25:22.289Z,15.68
2022-11-29T07:31:44.408Z,21.02
2022-11-29T07:37:48.029Z,15.82
2022-11-29T07:43:37.819Z,15.65
2022-11-29T07:49:12.118Z,16.25
2022-11-29T07:54:44.297Z,17.20
2022-11-29T08:00:16.328Z,17.05
2022-11-29T08:05:47.874Z,16.15
2022-11-29T08:11:18.728Z,19.02
2022-11-29T08:16:49.883Z,17.67
2022-11-29T08:22:21.736Z,17.13
2022-11-29T08:27:54.768Z,16.92
2022-11-29T08:33:26.023Z,15.77
2022-11-29T08:39:03.508Z,14.02
2022-11-29T08:44:37.366Z,16.13
2022-11-29T08:50:15.053Z,15.88
2022-11-29T08:55:46.848Z,14.80
2022-11-29T09:01:19.326Z,16.50
2022-11-29T09:06:50.602Z,14.57
2022-11-29T09:12:21.720Z,17.00
2022-11-29T09:17:52.877Z,13.82
2022-11-29T09:23:24.062Z,16.10
2022-11-29T09:29:01.455Z,14.25
2022-11-29T09:34:33.008Z,15.05
2022-11-29T09:40:05.144Z,16.77
2022-11-29T09:45:42.815Z,16.13
2022-11-29T09:51:24.484Z,13.43
2022-11-29T09:56:55.974Z,14.18
2022-11-29T10:02:34.719Z,13.50
2022-11-29T10:08:16.129Z,14.40
2022-11-29T10:13:52.598Z,13.88
2022-11-29T10:19:41.516Z,13.43
2022-11-29T10:25:21.441Z,14.48
2022-11-29T10:30:57.310Z,11.93
2022-11-29T10:36:37.179Z,13.77
2022-11-29T10:42:47.432Z,13.15
2022-11-29T10:48:21.001Z,14.00
2022-11-29T10:59:26.548Z,15.35
2022-11-29T11:04:59.393Z,15.07
2022-11-29T11:10:31.070Z,17.55
2022-11-29T11:16:11.831Z,17.20
2022-11-29T11:21:42.688Z,15.00
2022-11-29T11:27:13.850Z,16.13
2022-11-29T11:33:06.918Z,15.18
2022-11-29T11:38:58.075Z,16.92
2022-11-29T11:44:48.885Z,15.27
2022-11-29T11:50:35.174Z,14.43
2022-11-29T11:56:08.833Z,16.02
2022-11-29T12:07:38.700Z,15.50
2022-11-29T12:13:26.889Z,16.08
2022-11-29T12:19:05.422Z,16.27
2022-11-29T12:24:40.039Z,15.40
2022-11-29T12:30:14.174Z,14.38
2022-11-29T12:35:52.749Z,16.98
2022-11-29T12:41:41.679Z,15.48
2022-11-29T12:47:46.299Z,15.70
2022-11-29T12:53:34.477Z,16.80
2022-11-29T12:59:15.570Z,17.50
2022-11-29T13:05:04.178Z,15.55
2022-11-29T13:10:53.594Z,17.73
2022-11-29T13:16:32.730Z,15.13
2022-11-29T13:22:21.841Z,15.82
2022-11-29T13:28:02.750Z,14.40
2022-11-29T13:33:55.655Z,17.05
2022-11-29T13:40:06.246Z,17.50
2022-11-29T13:46:08.814Z,17.23
2022-11-29T13:51:41.760Z,16.58
2022-11-29T13:57:13.274Z,15.95
2022-11-29T14:02:45.154Z,17.88
2022-11-29T14:08:42.478Z,17.77
2022-11-29T14:19:52.965Z,17.38
2022-11-29T14:25:50.578Z,20.17
2022-11-29T14:31:49.899Z,18.33
2022-11-29T14:37:51.036Z,15.77
2022-11-29T14:43:34.631Z,18.58
2022-11-29T14:49:06.067Z,17.98
2022-11-29T14:54:54.677Z,20.27
2022-11-29T15:00:28.946Z,18.67
2022-11-29T15:11:52.794Z,21.77
2022-11-29T15:17:37.632Z,20.30
2022-11-29T15:23:15.216Z,20.35
2022-11-29T15:28:46.383Z,19.73
2022-11-29T15:34:43.565Z,22.15
2022-11-29T15:40:24.199Z,21.70
2022-11-29T15:45:57.067Z,20.52
2022-11-29T15:51:31.915Z,20.97
2022-11-29T15:57:13.440Z,21.38
2022-11-29T16:03:04.646Z,19.02
2022-11-29T16:08:42.179Z,20.25
2022-11-29T16:14:27.000Z,20.55
2022-11-29T16:20:19.546Z,21.40
2022-11-29T16:26:04.241Z,18.77
2022-11-29T16:37:08.355Z,22.13
2022-11-29T16:42:40.911Z,25.85
2022-11-29T16:48:25.696Z,20.50
2022-11-29T16:59:28.383Z,20.90
2022-11-29T17:04:59.819Z,21.00
2022-11-29T17:10:32.457Z,20.70
2022-11-29T17:16:03.697Z,21.85
2022-11-29T17:21:35.314Z,23.52
2022-11-29T17:27:06.835Z,24.15
2022-11-29T17:32:38.414Z,22.65
2022-11-29T17:38:09.567Z,22.48
2022-11-29T17:43:40.903Z,20.25
2022-11-29T17:49:12.550Z,21.90
2022-11-29T17:54:43.562Z,23.85
2022-11-29T18:00:16.469Z,21.83
2022-11-29T18:05:47.811Z,22.83
2022-11-29T18:11:24.906Z,22.30
2022-11-29T18:16:56.626Z,23.48
2022-11-29T18:22:27.887Z,22.67
2022-11-29T18:27:58.908Z,20.83
2022-11-29T18:33:30.310Z,22.10
2022-11-29T18:39:10.519Z,22.77
2022-11-29T18:44:41.709Z,22.58
2022-11-29T18:50:13.209Z,21.88
2022-11-29T18:55:44.339Z,24.05
2022-11-29T19:01:17.635Z,20.75
2022-11-29T19:06:49.327Z,21.75
2022-11-29T19:12:20.699Z,21.65
2022-11-29T19:17:53.142Z,21.67
2022-11-29T19:23:24.483Z,22.75
2022-11-29T19:28:55.491Z,19.42
2022-11-29T19:34:26.639Z,21.90
2022-11-29T19:39:58.154Z,21.83
2022-11-29T19:45:29.541Z,25.38
2022-11-29T19:51:00.971Z,20.70
2022-11-29T19:56:32.895Z,22.73
2022-11-29T20:02:04.216Z,19.48
2022-11-29T20:07:35.707Z,19.15
2022-11-29T20:13:08.131Z,20.17
2022-11-29T20:18:44.617Z,19.40
2022-11-29T20:24:20.193Z,24.27
2022-11-29T20:29:51.035Z,18.88
2022-11-29T20:35:22.713Z,20.67
2022-11-29T20:41:03.121Z,22.88
2022-11-29T20:46:35.021Z,20.65
2022-11-29T20:52:07.666Z,19.17
2022-11-29T20:57:38.911Z,20.67
2022-11-29T21:03:14.342Z,21.70
2022-11-29T21:08:45.557Z,20.45
2022-11-29T21:14:17.267Z,20.08
2022-11-29T21:19:48.927Z,21.38
2022-11-29T21:25:45.960Z,17.17
2022-11-29T21:31:18.461Z,21.83
2022-11-29T21:36:56.945Z,21.20
2022-11-29T21:42:28.097Z,22.88
2022-11-29T21:48:01.916Z,21.58
2022-11-29T21:53:37.444Z,21.40
2022-11-29T21:59:08.823Z,21.23
2022-11-29T22:04:40.069Z,20.23
2022-11-29T22:10:13.492Z,18.40
2022-11-29T22:15:45.267Z,20.20
2022-11-29T22:21:16.614Z,19.05
2022-11-29T22:26:49.055Z,20.73
2022-11-29T22:32:20.039Z,18.48
2022-11-29T22:37:51.241Z,19.02
2022-11-29T22:43:22.294Z,21.42
2022-11-29T22:48:55.804Z,20.67
2022-11-29T22:54:27.112Z,19.15
2022-11-29T22:59:58.305Z,19.45
2022-11-29T23:05:32.272Z,19.90
2022-11-29T23:11:05.125Z,18.25
2022-11-29T23:16:36.441Z,19.13
2022-11-29T23:22:07.807Z,17.88
2022-11-29T23:27:38.812Z,17.30
2022-11-29T23:33:10.226Z,19.80
2022-11-29T23:38:41.579Z,17.05
2022-11-29T23:44:12.815Z,17.13
2022-11-29T23:49:43.818Z,18.42
2022-11-29T23:55:15.174Z,16.85
